SGW weather

Saginaw Seaplane Base
Saginaw Bay, Alaska, United States

Public forecast

Using degrees Fahrenheit for public forecast. Weather courtesy of forecast.io.

METAR (pilot weather report)

Report is more than 2 hours old.

Closest report is Kake Airport, 9.3 nm (17.2 km) ENE. Retrieved 2019/09/22 15:56 UTC (3 hours ago):

PAFE 221556Z AUTO 11004KT 10SM SCT095 09/08 A2979 RMK AO2 RAE05 SLP099 P0000 T00940078

TAF (pilot weather forecast)

Closest forecast is Petersburg James A Johnson Airport, 40.2 nm (74.4 km) E. Retrieved 2019/09/22 18:22 UTC (54 minutes ago):

TAF PAPG 221720Z 2218/2318 VRB03KT P6SM -SHRA SCT015 BKN025 TEMPO 2218/2221 6SM -SHRA BR BKN025 OVC050 FM222100 07004KT P6SM VCSH SCT025 OVC050 FM230900 14006KT 6SM -RA OVC050 FM231500 11008G14KT 5SM -RA BKN025 OVC040 WS020/14035KT AMD NOT SKED